sensor_id;sensor_type;location;lat;lon;timestamp;temperature;humidity
52245;DHT22;55759;51.586;-1.758;2022-07-23T00:00:42;15.50;86.50
52245;DHT22;55759;51.586;-1.758;2022-07-23T00:03:08;15.40;86.60
52245;DHT22;55759;51.586;-1.758;2022-07-23T00:05:34;15.40;86.60
52245;DHT22;55759;51.586;-1.758;2022-07-23T00:07:59;15.30;86.70
52245;DHT22;55759;51.586;-1.758;2022-07-23T00:10:25;15.30;86.80
52245;DHT22;55759;51.586;-1.758;2022-07-23T00:12:51;15.20;86.80
52245;DHT22;55759;51.586;-1.758;2022-07-23T00:15:16;15.20;86.90
52245;DHT22;55759;51.586;-1.758;2022-07-23T00:17:42;15.10;87.00
52245;DHT22;55759;51.586;-1.758;2022-07-23T00:20:08;15.10;87.00
52245;DHT22;55759;51.586;-1.758;2022-07-23T00:22:34;15.10;87.10
52245;DHT22;55759;51.586;-1.758;2022-07-23T00:25:03;15.10;87.20
52245;DHT22;55759;51.586;-1.758;2022-07-23T00:27:28;15.00;87.20
52245;DHT22;55759;51.586;-1.758;2022-07-23T00:29:54;15.00;87.30
52245;DHT22;55759;51.586;-1.758;2022-07-23T00:32:20;14.90;87.30
52245;DHT22;55759;51.586;-1.758;2022-07-23T00:34:46;14.90;87.40
52245;DHT22;55759;51.586;-1.758;2022-07-23T00:37:11;14.80;87.40
52245;DHT22;55759;51.586;-1.758;2022-07-23T00:39:37;14.80;87.50
52245;DHT22;55759;51.586;-1.758;2022-07-23T00:42:03;14.80;87.40
52245;DHT22;55759;51.586;-1.758;2022-07-23T00:44:29;14.80;87.50
52245;DHT22;55759;51.586;-1.758;2022-07-23T00:46:58;14.70;87.50
52245;DHT22;55759;51.586;-1.758;2022-07-23T00:49:28;14.70;87.70
52245;DHT22;55759;51.586;-1.758;2022-07-23T00:51:54;14.70;87.70
52245;DHT22;55759;51.586;-1.758;2022-07-23T00:54:23;14.70;87.70
52245;DHT22;55759;51.586;-1.758;2022-07-23T00:56:49;14.60;87.70
52245;DHT22;55759;51.586;-1.758;2022-07-23T00:59:15;14.60;87.80
52245;DHT22;55759;51.586;-1.758;2022-07-23T01:01:41;14.60;87.90
52245;DHT22;55759;51.586;-1.758;2022-07-23T01:04:07;14.60;87.90
52245;DHT22;55759;51.586;-1.758;2022-07-23T01:06:37;14.60;87.90
52245;DHT22;55759;51.586;-1.758;2022-07-23T01:09:05;14.60;87.90
52245;DHT22;55759;51.586;-1.758;2022-07-23T01:11:35;14.50;88.00
52245;DHT22;55759;51.586;-1.758;2022-07-23T01:14:12;14.50;88.10
52245;DHT22;55759;51.586;-1.758;2022-07-23T01:16:38;14.50;88.10
52245;DHT22;55759;51.586;-1.758;2022-07-23T01:19:04;14.40;88.20
52245;DHT22;55759;51.586;-1.758;2022-07-23T01:21:36;14.40;88.10
52245;DHT22;55759;51.586;-1.758;2022-07-23T01:24:03;14.40;88.20
52245;DHT22;55759;51.586;-1.758;2022-07-23T01:26:29;14.30;88.30
52245;DHT22;55759;51.586;-1.758;2022-07-23T01:28:55;14.30;88.40
52245;DHT22;55759;51.586;-1.758;2022-07-23T01:31:21;14.30;88.40
52245;DHT22;55759;51.586;-1.758;2022-07-23T01:33:47;14.30;88.40
52245;DHT22;55759;51.586;-1.758;2022-07-23T01:36:13;14.20;88.40
52245;DHT22;55759;51.586;-1.758;2022-07-23T01:38:39;14.20;88.50
52245;DHT22;55759;51.586;-1.758;2022-07-23T01:41:05;14.20;88.50
52245;DHT22;55759;51.586;-1.758;2022-07-23T01:43:30;14.20;88.50
52245;DHT22;55759;51.586;-1.758;2022-07-23T01:45:56;14.20;88.60
52245;DHT22;55759;51.586;-1.758;2022-07-23T01:48:22;14.20;88.60
52245;DHT22;55759;51.586;-1.758;2022-07-23T01:50:48;14.20;88.60
52245;DHT22;55759;51.586;-1.758;2022-07-23T01:53:14;14.20;88.70
52245;DHT22;55759;51.586;-1.758;2022-07-23T01:55:41;14.20;88.70
52245;DHT22;55759;51.586;-1.758;2022-07-23T01:58:07;14.20;88.80
52245;DHT22;55759;51.586;-1.758;2022-07-23T02:00:32;14.20;88.80
52245;DHT22;55759;51.586;-1.758;2022-07-23T02:02:58;14.40;88.90
52245;DHT22;55759;51.586;-1.758;2022-07-23T02:05:25;14.50;88.70
52245;DHT22;55759;51.586;-1.758;2022-07-23T02:07:51;14.60;88.40
52245;DHT22;55759;51.586;-1.758;2022-07-23T02:10:17;14.70;88.10
52245;DHT22;55759;51.586;-1.758;2022-07-23T02:12:43;14.80;87.90
52245;DHT22;55759;51.586;-1.758;2022-07-23T02:15:09;14.90;87.70
52245;DHT22;55759;51.586;-1.758;2022-07-23T02:17:35;15.00;87.20
52245;DHT22;55759;51.586;-1.758;2022-07-23T02:20:00;15.00;87.20
52245;DHT22;55759;51.586;-1.758;2022-07-23T02:22:26;15.10;86.80
52245;DHT22;55759;51.586;-1.758;2022-07-23T02:24:52;15.20;86.50
52245;DHT22;55759;51.586;-1.758;2022-07-23T02:27:17;15.30;86.40
52245;DHT22;55759;51.586;-1.758;2022-07-23T02:29:43;15.30;86.20
52245;DHT22;55759;51.586;-1.758;2022-07-23T02:32:09;15.40;86.20
52245;DHT22;55759;51.586;-1.758;2022-07-23T02:34:35;15.50;86.10
52245;DHT22;55759;51.586;-1.758;2022-07-23T02:37:00;15.60;85.90
52245;DHT22;55759;51.586;-1.758;2022-07-23T02:39:26;15.60;85.70
52245;DHT22;55759;51.586;-1.758;2022-07-23T02:41:52;15.70;84.90
52245;DHT22;55759;51.586;-1.758;2022-07-23T02:44:18;15.70;85.10
52245;DHT22;55759;51.586;-1.758;2022-07-23T02:46:43;15.80;84.60
52245;DHT22;55759;51.586;-1.758;2022-07-23T02:49:09;15.70;84.60
52245;DHT22;55759;51.586;-1.758;2022-07-23T02:51:35;15.70;84.80
52245;DHT22;55759;51.586;-1.758;2022-07-23T02:54:00;15.70;84.60
52245;DHT22;55759;51.586;-1.758;2022-07-23T02:56:26;15.70;84.30
52245;DHT22;55759;51.586;-1.758;2022-07-23T02:58:52;15.80;84.30
52245;DHT22;55759;51.586;-1.758;2022-07-23T03:01:18;15.70;84.50
52245;DHT22;55759;51.586;-1.758;2022-07-23T03:03:43;15.80;84.50
52245;DHT22;55759;51.586;-1.758;2022-07-23T03:06:09;15.80;84.50
52245;DHT22;55759;51.586;-1.758;2022-07-23T03:08:35;15.80;84.20
52245;DHT22;55759;51.586;-1.758;2022-07-23T03:11:00;15.70;84.10
52245;DHT22;55759;51.586;-1.758;2022-07-23T03:13:26;15.60;84.50
52245;DHT22;55759;51.586;-1.758;2022-07-23T03:15:52;15.50;84.80
52245;DHT22;55759;51.586;-1.758;2022-07-23T03:18:17;15.50;85.10
52245;DHT22;55759;51.586;-1.758;2022-07-23T03:20:43;15.50;85.00
52245;DHT22;55759;51.586;-1.758;2022-07-23T03:23:09;15.50;85.00
52245;DHT22;55759;51.586;-1.758;2022-07-23T03:25:34;15.40;84.90
52245;DHT22;55759;51.586;-1.758;2022-07-23T03:28:00;15.30;84.90
52245;DHT22;55759;51.586;-1.758;2022-07-23T03:30:26;15.20;85.00
52245;DHT22;55759;51.586;-1.758;2022-07-23T03:32:52;15.10;85.30
52245;DHT22;55759;51.586;-1.758;2022-07-23T03:35:17;15.00;85.60
52245;DHT22;55759;51.586;-1.758;2022-07-23T03:37:43;14.90;85.80
52245;DHT22;55759;51.586;-1.758;2022-07-23T03:40:09;14.80;86.00
52245;DHT22;55759;51.586;-1.758;2022-07-23T03:42:35;14.70;86.10
52245;DHT22;55759;51.586;-1.758;2022-07-23T03:45:03;14.60;86.40
52245;DHT22;55759;51.586;-1.758;2022-07-23T03:47:29;14.60;86.70
52245;DHT22;55759;51.586;-1.758;2022-07-23T03:49:54;14.60;86.80
52245;DHT22;55759;51.586;-1.758;2022-07-23T03:52:20;14.60;86.90
52245;DHT22;55759;51.586;-1.758;2022-07-23T03:54:46;14.60;86.90
52245;DHT22;55759;51.586;-1.758;2022-07-23T03:57:11;14.60;86.80
52245;DHT22;55759;51.586;-1.758;2022-07-23T03:59:37;14.60;86.90
52245;DHT22;55759;51.586;-1.758;2022-07-23T04:02:03;14.60;86.90
52245;DHT22;55759;51.586;-1.758;2022-07-23T04:04:28;14.60;86.70
52245;DHT22;55759;51.586;-1.758;2022-07-23T04:06:54;14.60;86.60
52245;DHT22;55759;51.586;-1.758;2022-07-23T04:09:20;14.50;86.60
52245;DHT22;55759;51.586;-1.758;2022-07-23T04:11:45;14.50;86.30
52245;DHT22;55759;51.586;-1.758;2022-07-23T04:14:11;14.50;86.30
52245;DHT22;55759;51.586;-1.758;2022-07-23T04:16:37;14.40;86.50
52245;DHT22;55759;51.586;-1.758;2022-07-23T04:19:04;14.40;86.30
52245;DHT22;55759;51.586;-1.758;2022-07-23T04:21:30;14.40;86.30
52245;DHT22;55759;51.586;-1.758;2022-07-23T04:23:55;14.40;86.30
52245;DHT22;55759;51.586;-1.758;2022-07-23T04:26:21;14.30;86.30
52245;DHT22;55759;51.586;-1.758;2022-07-23T04:28:47;14.30;86.30
52245;DHT22;55759;51.586;-1.758;2022-07-23T04:31:13;14.20;86.30
52245;DHT22;55759;51.586;-1.758;2022-07-23T04:33:38;14.10;86.30
52245;DHT22;55759;51.586;-1.758;2022-07-23T04:36:04;14.10;86.30
52245;DHT22;55759;51.586;-1.758;2022-07-23T04:38:30;14.00;86.40
52245;DHT22;55759;51.586;-1.758;2022-07-23T04:40:56;14.00;86.50
52245;DHT22;55759;51.586;-1.758;2022-07-23T04:43:22;13.90;86.40
52245;DHT22;55759;51.586;-1.758;2022-07-23T04:45:47;13.80;86.50
52245;DHT22;55759;51.586;-1.758;2022-07-23T04:48:13;13.80;86.70
52245;DHT22;55759;51.586;-1.758;2022-07-23T04:50:39;13.80;86.60
52245;DHT22;55759;51.586;-1.758;2022-07-23T04:53:07;13.70;86.80
52245;DHT22;55759;51.586;-1.758;2022-07-23T04:55:33;13.70;86.90
52245;DHT22;55759;51.586;-1.758;2022-07-23T04:57:59;13.70;86.90
52245;DHT22;55759;51.586;-1.758;2022-07-23T05:00:25;13.70;87.00
52245;DHT22;55759;51.586;-1.758;2022-07-23T05:02:50;13.80;87.00
52245;DHT22;55759;51.586;-1.758;2022-07-23T05:05:16;13.80;86.90
52245;DHT22;55759;51.586;-1.758;2022-07-23T05:07:42;13.80;86.90
52245;DHT22;55759;51.586;-1.758;2022-07-23T05:10:08;13.90;86.80
52245;DHT22;55759;51.586;-1.758;2022-07-23T05:12:33;13.90;86.70
52245;DHT22;55759;51.586;-1.758;2022-07-23T05:14:59;14.00;86.40
52245;DHT22;55759;51.586;-1.758;2022-07-23T05:17:25;14.10;86.10
52245;DHT22;55759;51.586;-1.758;2022-07-23T05:19:50;14.10;86.00
52245;DHT22;55759;51.586;-1.758;2022-07-23T05:22:16;14.10;85.70
52245;DHT22;55759;51.586;-1.758;2022-07-23T05:24:42;14.30;85.60
52245;DHT22;55759;51.586;-1.758;2022-07-23T05:27:08;14.40;85.30
52245;DHT22;55759;51.586;-1.758;2022-07-23T05:29:34;14.50;84.50
52245;DHT22;55759;51.586;-1.758;2022-07-23T05:31:59;14.50;84.30
52245;DHT22;55759;51.586;-1.758;2022-07-23T05:34:25;14.60;84.10
52245;DHT22;55759;51.586;-1.758;2022-07-23T05:36:51;14.60;83.90
52245;DHT22;55759;51.586;-1.758;2022-07-23T05:39:17;14.70;83.60
52245;DHT22;55759;51.586;-1.758;2022-07-23T05:41:43;15.00;83.20
52245;DHT22;55759;51.586;-1.758;2022-07-23T05:44:08;15.10;82.80
52245;DHT22;55759;51.586;-1.758;2022-07-23T05:46:34;15.10;82.60
52245;DHT22;55759;51.586;-1.758;2022-07-23T05:49:00;15.20;82.60
52245;DHT22;55759;51.586;-1.758;2022-07-23T05:51:25;15.10;82.10
52245;DHT22;55759;51.586;-1.758;2022-07-23T05:53:52;15.10;82.00
52245;DHT22;55759;51.586;-1.758;2022-07-23T05:56:18;15.10;81.90
52245;DHT22;55759;51.586;-1.758;2022-07-23T05:58:44;15.10;82.20
52245;DHT22;55759;51.586;-1.758;2022-07-23T06:01:10;15.20;81.80
52245;DHT22;55759;51.586;-1.758;2022-07-23T06:03:39;15.20;81.50
52245;DHT22;55759;51.586;-1.758;2022-07-23T06:06:05;15.30;81.80
52245;DHT22;55759;51.586;-1.758;2022-07-23T06:08:31;15.40;81.30
52245;DHT22;55759;51.586;-1.758;2022-07-23T06:10:57;15.50;81.40
52245;DHT22;55759;51.586;-1.758;2022-07-23T06:13:23;15.70;81.50
52245;DHT22;55759;51.586;-1.758;2022-07-23T06:15:49;15.90;81.30
52245;DHT22;55759;51.586;-1.758;2022-07-23T06:18:14;16.00;80.40
52245;DHT22;55759;51.586;-1.758;2022-07-23T06:20:40;16.10;79.90
52245;DHT22;55759;51.586;-1.758;2022-07-23T06:23:06;16.20;79.70
52245;DHT22;55759;51.586;-1.758;2022-07-23T06:25:32;16.30;79.40
52245;DHT22;55759;51.586;-1.758;2022-07-23T06:27:57;16.40;79.70
52245;DHT22;55759;51.586;-1.758;2022-07-23T06:30:23;16.50;79.50
52245;DHT22;55759;51.586;-1.758;2022-07-23T06:32:51;16.60;78.80
52245;DHT22;55759;51.586;-1.758;2022-07-23T06:35:17;16.60;78.20
52245;DHT22;55759;51.586;-1.758;2022-07-23T06:37:43;16.70;78.00
52245;DHT22;55759;51.586;-1.758;2022-07-23T06:40:09;16.80;77.90
52245;DHT22;55759;51.586;-1.758;2022-07-23T06:42:35;17.00;76.60
52245;DHT22;55759;51.586;-1.758;2022-07-23T06:45:05;17.00;75.60
52245;DHT22;55759;51.586;-1.758;2022-07-23T06:47:31;17.10;75.60
52245;DHT22;55759;51.586;-1.758;2022-07-23T06:49:58;17.20;75.20
52245;DHT22;55759;51.586;-1.758;2022-07-23T06:52:23;17.30;74.50
52245;DHT22;55759;51.586;-1.758;2022-07-23T06:54:50;17.30;74.60
52245;DHT22;55759;51.586;-1.758;2022-07-23T06:57:15;17.40;74.00
52245;DHT22;55759;51.586;-1.758;2022-07-23T06:59:42;17.60;74.50
52245;DHT22;55759;51.586;-1.758;2022-07-23T07:02:07;17.60;74.30
52245;DHT22;55759;51.586;-1.758;2022-07-23T07:04:33;17.70;72.70
52245;DHT22;55759;51.586;-1.758;2022-07-23T07:06:59;17.70;72.60
52245;DHT22;55759;51.586;-1.758;2022-07-23T07:09:25;17.70;72.90
52245;DHT22;55759;51.586;-1.758;2022-07-23T07:11:51;17.70;72.30
52245;DHT22;55759;51.586;-1.758;2022-07-23T07:14:16;17.70;72.10
52245;DHT22;55759;51.586;-1.758;2022-07-23T07:16:42;17.80;71.80
52245;DHT22;55759;51.586;-1.758;2022-07-23T07:19:13;17.80;72.50
52245;DHT22;55759;51.586;-1.758;2022-07-23T07:21:39;18.00;72.20
52245;DHT22;55759;51.586;-1.758;2022-07-23T07:24:05;18.10;72.30
52245;DHT22;55759;51.586;-1.758;2022-07-23T07:26:32;18.20;71.40
52245;DHT22;55759;51.586;-1.758;2022-07-23T07:28:57;18.50;71.40
52245;DHT22;55759;51.586;-1.758;2022-07-23T07:31:29;18.60;69.40
52245;DHT22;55759;51.586;-1.758;2022-07-23T07:33:57;18.70;68.50
52245;DHT22;55759;51.586;-1.758;2022-07-23T07:36:24;18.90;68.90
52245;DHT22;55759;51.586;-1.758;2022-07-23T07:38:49;19.00;67.30
52245;DHT22;55759;51.586;-1.758;2022-07-23T07:41:15;19.10;68.00
52245;DHT22;55759;51.586;-1.758;2022-07-23T07:43:41;19.10;67.50
52245;DHT22;55759;51.586;-1.758;2022-07-23T07:46:10;19.10;67.10
52245;DHT22;55759;51.586;-1.758;2022-07-23T07:48:39;19.10;66.40
52245;DHT22;55759;51.586;-1.758;2022-07-23T07:51:05;19.10;66.10
52245;DHT22;55759;51.586;-1.758;2022-07-23T07:53:31;19.00;65.10
52245;DHT22;55759;51.586;-1.758;2022-07-23T07:55:57;18.90;66.30
52245;DHT22;55759;51.586;-1.758;2022-07-23T07:58:23;18.90;66.40
52245;DHT22;55759;51.586;-1.758;2022-07-23T08:00:49;18.90;64.90
52245;DHT22;55759;51.586;-1.758;2022-07-23T08:03:15;18.90;64.20
52245;DHT22;55759;51.586;-1.758;2022-07-23T08:05:40;19.10;65.10
52245;DHT22;55759;51.586;-1.758;2022-07-23T08:08:06;19.10;65.50
52245;DHT22;55759;51.586;-1.758;2022-07-23T08:10:32;19.20;65.90
52245;DHT22;55759;51.586;-1.758;2022-07-23T08:12:59;19.30;64.20
52245;DHT22;55759;51.586;-1.758;2022-07-23T08:15:27;19.40;64.30
52245;DHT22;55759;51.586;-1.758;2022-07-23T08:17:54;19.50;64.00
52245;DHT22;55759;51.586;-1.758;2022-07-23T08:20:20;19.60;65.00
52245;DHT22;55759;51.586;-1.758;2022-07-23T08:25:23;19.80;64.40
52245;DHT22;55759;51.586;-1.758;2022-07-23T08:27:50;20.00;64.50
52245;DHT22;55759;51.586;-1.758;2022-07-23T08:30:16;20.20;64.50
52245;DHT22;55759;51.586;-1.758;2022-07-23T08:32:54;20.40;64.40
52245;DHT22;55759;51.586;-1.758;2022-07-23T08:35:26;20.50;63.90
52245;DHT22;55759;51.586;-1.758;2022-07-23T08:37:52;20.60;63.20
52245;DHT22;55759;51.586;-1.758;2022-07-23T08:40:18;20.60;63.90
52245;DHT22;55759;51.586;-1.758;2022-07-23T08:42:49;20.60;63.10
52245;DHT22;55759;51.586;-1.758;2022-07-23T08:45:20;20.60;63.20
52245;DHT22;55759;51.586;-1.758;2022-07-23T08:47:52;20.60;63.70
52245;DHT22;55759;51.586;-1.758;2022-07-23T08:50:19;20.70;63.10
52245;DHT22;55759;51.586;-1.758;2022-07-23T08:52:44;20.70;61.90
52245;DHT22;55759;51.586;-1.758;2022-07-23T08:55:10;20.80;62.40
52245;DHT22;55759;51.586;-1.758;2022-07-23T08:57:36;20.80;62.90
52245;DHT22;55759;51.586;-1.758;2022-07-23T09:00:04;21.00;62.00
52245;DHT22;55759;51.586;-1.758;2022-07-23T09:02:30;21.10;61.70
52245;DHT22;55759;51.586;-1.758;2022-07-23T09:04:56;21.10;61.30
52245;DHT22;55759;51.586;-1.758;2022-07-23T09:07:22;21.30;61.40
52245;DHT22;55759;51.586;-1.758;2022-07-23T09:10:08;21.40;60.60
52245;DHT22;55759;51.586;-1.758;2022-07-23T09:12:35;21.60;60.70
52245;DHT22;55759;51.586;-1.758;2022-07-23T09:15:06;21.80;60.00
52245;DHT22;55759;51.586;-1.758;2022-07-23T09:17:42;22.10;59.20
52245;DHT22;55759;51.586;-1.758;2022-07-23T09:20:16;22.50;58.00
52245;DHT22;55759;51.586;-1.758;2022-07-23T09:22:46;23.00;56.30
52245;DHT22;55759;51.586;-1.758;2022-07-23T09:27:50;23.60;53.70
52245;DHT22;55759;51.586;-1.758;2022-07-23T09:30:19;23.70;53.50
52245;DHT22;55759;51.586;-1.758;2022-07-23T09:32:56;23.80;53.30
52245;DHT22;55759;51.586;-1.758;2022-07-23T09:38:13;23.80;52.50
52245;DHT22;55759;51.586;-1.758;2022-07-23T09:40:39;23.50;54.20
52245;DHT22;55759;51.586;-1.758;2022-07-23T09:43:04;23.30;54.70
52245;DHT22;55759;51.586;-1.758;2022-07-23T09:45:30;23.30;55.80
52245;DHT22;55759;51.586;-1.758;2022-07-23T09:48:15;23.40;55.90
52245;DHT22;55759;51.586;-1.758;2022-07-23T09:50:42;23.60;54.90
52245;DHT22;55759;51.586;-1.758;2022-07-23T09:53:08;23.70;54.20
52245;DHT22;55759;51.586;-1.758;2022-07-23T09:55:36;23.90;54.80
52245;DHT22;55759;51.586;-1.758;2022-07-23T09:58:03;23.90;54.00
52245;DHT22;55759;51.586;-1.758;2022-07-23T10:00:30;23.80;53.90
52245;DHT22;55759;51.586;-1.758;2022-07-23T10:02:57;23.60;54.90
52245;DHT22;55759;51.586;-1.758;2022-07-23T10:05:24;23.60;54.30
52245;DHT22;55759;51.586;-1.758;2022-07-23T10:07:51;23.60;55.40
52245;DHT22;55759;51.586;-1.758;2022-07-23T10:10:16;23.70;55.30
52245;DHT22;55759;51.586;-1.758;2022-07-23T10:12:46;23.90;55.40
52245;DHT22;55759;51.586;-1.758;2022-07-23T10:15:31;24.00;54.30
52245;DHT22;55759;51.586;-1.758;2022-07-23T10:17:57;24.10;54.10
52245;DHT22;55759;51.586;-1.758;2022-07-23T10:20:23;24.20;53.20
52245;DHT22;55759;51.586;-1.758;2022-07-23T10:23:02;24.50;53.10
52245;DHT22;55759;51.586;-1.758;2022-07-23T10:26:00;24.80;52.00
52245;DHT22;55759;51.586;-1.758;2022-07-23T10:29:07;25.50;50.40
52245;DHT22;55759;51.586;-1.758;2022-07-23T10:37:16;27.10;46.30
52245;DHT22;55759;51.586;-1.758;2022-07-23T10:40:13;27.20;46.60
52245;DHT22;55759;51.586;-1.758;2022-07-23T10:42:40;27.70;45.30
52245;DHT22;55759;51.586;-1.758;2022-07-23T10:47:55;28.20;44.90
52245;DHT22;55759;51.586;-1.758;2022-07-23T10:50:34;29.30;43.10
52245;DHT22;55759;51.586;-1.758;2022-07-23T10:53:13;30.20;41.00
52245;DHT22;55759;51.586;-1.758;2022-07-23T10:55:50;30.20;40.10
52245;DHT22;55759;51.586;-1.758;2022-07-23T10:58:46;30.70;39.90
52245;DHT22;55759;51.586;-1.758;2022-07-23T11:01:36;30.50;39.10
52245;DHT22;55759;51.586;-1.758;2022-07-23T11:04:03;30.30;40.50
52245;DHT22;55759;51.586;-1.758;2022-07-23T11:09:29;33.30;35.30
52245;DHT22;55759;51.586;-1.758;2022-07-23T11:14:58;33.60;34.20
52245;DHT22;55759;51.586;-1.758;2022-07-23T11:17:35;33.60;35.00
52245;DHT22;55759;51.586;-1.758;2022-07-23T11:25:12;31.30;38.10
52245;DHT22;55759;51.586;-1.758;2022-07-23T11:27:44;31.20;38.40
52245;DHT22;55759;51.586;-1.758;2022-07-23T11:35:42;31.50;37.90
52245;DHT22;55759;51.586;-1.758;2022-07-23T11:38:14;31.20;38.60
52245;DHT22;55759;51.586;-1.758;2022-07-23T11:40:40;31.10;38.20
52245;DHT22;55759;51.586;-1.758;2022-07-23T11:43:08;31.50;38.20
52245;DHT22;55759;51.586;-1.758;2022-07-23T11:45:36;31.80;37.30
52245;DHT22;55759;51.586;-1.758;2022-07-23T11:48:03;31.70;37.30
52245;DHT22;55759;51.586;-1.758;2022-07-23T11:50:30;31.60;37.80
52245;DHT22;55759;51.586;-1.758;2022-07-23T11:52:56;31.40;38.70
52245;DHT22;55759;51.586;-1.758;2022-07-23T11:55:22;30.80;38.80
52245;DHT22;55759;51.586;-1.758;2022-07-23T11:57:51;30.20;39.60
52245;DHT22;55759;51.586;-1.758;2022-07-23T12:00:22;29.90;40.40
52245;DHT22;55759;51.586;-1.758;2022-07-23T12:02:54;29.60;41.30
52245;DHT22;55759;51.586;-1.758;2022-07-23T12:05:26;29.10;42.60
52245;DHT22;55759;51.586;-1.758;2022-07-23T12:07:54;28.70;43.50
52245;DHT22;55759;51.586;-1.758;2022-07-23T12:12:51;28.10;45.20
52245;DHT22;55759;51.586;-1.758;2022-07-23T12:15:22;28.10;44.70
52245;DHT22;55759;51.586;-1.758;2022-07-23T12:17:49;28.10;44.70
52245;DHT22;55759;51.586;-1.758;2022-07-23T12:20:30;28.00;44.50
52245;DHT22;55759;51.586;-1.758;2022-07-23T12:22:59;27.90;45.00
52245;DHT22;55759;51.586;-1.758;2022-07-23T12:25:31;27.80;45.80
52245;DHT22;55759;51.586;-1.758;2022-07-23T12:28:13;28.10;44.90
52245;DHT22;55759;51.586;-1.758;2022-07-23T12:30:50;28.40;44.40
52245;DHT22;55759;51.586;-1.758;2022-07-23T12:33:30;28.60;44.00
52245;DHT22;55759;51.586;-1.758;2022-07-23T12:35:59;28.50;43.60
52245;DHT22;55759;51.586;-1.758;2022-07-23T12:38:27;28.60;43.40
52245;DHT22;55759;51.586;-1.758;2022-07-23T12:40:59;28.70;42.90
52245;DHT22;55759;51.586;-1.758;2022-07-23T12:43:31;28.90;42.10
52245;DHT22;55759;51.586;-1.758;2022-07-23T12:46:06;29.10;42.30
52245;DHT22;55759;51.586;-1.758;2022-07-23T12:48:49;29.30;42.10
52245;DHT22;55759;51.586;-1.758;2022-07-23T12:53:45;29.40;41.80
52245;DHT22;55759;51.586;-1.758;2022-07-23T12:56:20;29.50;41.50
52245;DHT22;55759;51.586;-1.758;2022-07-23T12:58:48;29.60;42.00
52245;DHT22;55759;51.586;-1.758;2022-07-23T13:03:57;29.40;41.70
52245;DHT22;55759;51.586;-1.758;2022-07-23T13:06:25;28.90;42.50
52245;DHT22;55759;51.586;-1.758;2022-07-23T13:08:52;28.30;43.60
52245;DHT22;55759;51.586;-1.758;2022-07-23T13:11:18;28.00;45.10
52245;DHT22;55759;51.586;-1.758;2022-07-23T13:13:43;28.00;45.10
52245;DHT22;55759;51.586;-1.758;2022-07-23T13:16:09;27.80;45.20
52245;DHT22;55759;51.586;-1.758;2022-07-23T13:18:35;27.80;45.50
52245;DHT22;55759;51.586;-1.758;2022-07-23T13:21:00;27.90;44.80
52245;DHT22;55759;51.586;-1.758;2022-07-23T13:23:27;27.70;44.70
52245;DHT22;55759;51.586;-1.758;2022-07-23T13:25:53;27.60;45.40
52245;DHT22;55759;51.586;-1.758;2022-07-23T13:28:20;27.70;45.90
52245;DHT22;55759;51.586;-1.758;2022-07-23T13:30:47;27.80;45.70
52245;DHT22;55759;51.586;-1.758;2022-07-23T13:33:16;27.70;45.30
52245;DHT22;55759;51.586;-1.758;2022-07-23T13:35:42;27.40;46.00
52245;DHT22;55759;51.586;-1.758;2022-07-23T13:38:07;27.30;46.40
52245;DHT22;55759;51.586;-1.758;2022-07-23T13:40:39;27.50;46.80
52245;DHT22;55759;51.586;-1.758;2022-07-23T13:43:06;28.00;45.30
52245;DHT22;55759;51.586;-1.758;2022-07-23T13:45:33;27.80;45.60
52245;DHT22;55759;51.586;-1.758;2022-07-23T13:47:59;27.40;46.40
52245;DHT22;55759;51.586;-1.758;2022-07-23T13:50:25;27.00;47.20
52245;DHT22;55759;51.586;-1.758;2022-07-23T13:52:50;27.40;47.30
52245;DHT22;55759;51.586;-1.758;2022-07-23T13:55:16;28.20;46.00
52245;DHT22;55759;51.586;-1.758;2022-07-23T13:57:42;28.40;44.70
52245;DHT22;55759;51.586;-1.758;2022-07-23T14:00:12;28.10;44.70
52245;DHT22;55759;51.586;-1.758;2022-07-23T14:02:39;28.20;44.30
52245;DHT22;55759;51.586;-1.758;2022-07-23T14:05:06;28.80;42.90
52245;DHT22;55759;51.586;-1.758;2022-07-23T14:07:33;28.80;42.20
52245;DHT22;55759;51.586;-1.758;2022-07-23T14:09:59;28.20;44.10
52245;DHT22;55759;51.586;-1.758;2022-07-23T14:12:25;27.80;45.50
52245;DHT22;55759;51.586;-1.758;2022-07-23T14:14:51;27.60;46.20
52245;DHT22;55759;51.586;-1.758;2022-07-23T14:17:17;27.50;46.50
52245;DHT22;55759;51.586;-1.758;2022-07-23T14:19:43;27.50;46.00
52245;DHT22;55759;51.586;-1.758;2022-07-23T14:22:09;27.60;46.80
52245;DHT22;55759;51.586;-1.758;2022-07-23T14:24:35;28.10;45.90
52245;DHT22;55759;51.586;-1.758;2022-07-23T14:27:02;29.10;43.40
52245;DHT22;55759;51.586;-1.758;2022-07-23T14:29:28;30.40;41.60
52245;DHT22;55759;51.586;-1.758;2022-07-23T14:31:57;31.50;38.60
52245;DHT22;55759;51.586;-1.758;2022-07-23T14:34:23;31.10;38.90
52245;DHT22;55759;51.586;-1.758;2022-07-23T14:36:52;30.20;39.80
52245;DHT22;55759;51.586;-1.758;2022-07-23T14:39:18;29.70;41.50
52245;DHT22;55759;51.586;-1.758;2022-07-23T14:41:44;29.60;42.20
52245;DHT22;55759;51.586;-1.758;2022-07-23T14:44:10;29.60;42.20
52245;DHT22;55759;51.586;-1.758;2022-07-23T14:46:36;28.90;42.50
52245;DHT22;55759;51.586;-1.758;2022-07-23T14:49:02;28.10;44.00
52245;DHT22;55759;51.586;-1.758;2022-07-23T14:51:28;27.60;45.50
52245;DHT22;55759;51.586;-1.758;2022-07-23T14:53:54;27.10;46.80
52245;DHT22;55759;51.586;-1.758;2022-07-23T14:56:21;26.90;48.20
52245;DHT22;55759;51.586;-1.758;2022-07-23T14:58:47;27.20;47.40
52245;DHT22;55759;51.586;-1.758;2022-07-23T15:01:13;28.70;44.60
52245;DHT22;55759;51.586;-1.758;2022-07-23T15:03:38;29.80;42.10
52245;DHT22;55759;51.586;-1.758;2022-07-23T15:06:04;30.10;41.90
52245;DHT22;55759;51.586;-1.758;2022-07-23T15:08:33;31.20;40.10
52245;DHT22;55759;51.586;-1.758;2022-07-23T15:10:59;31.10;39.80
52245;DHT22;55759;51.586;-1.758;2022-07-23T15:13:25;30.30;41.10
52245;DHT22;55759;51.586;-1.758;2022-07-23T15:15:50;29.60;42.40
52245;DHT22;55759;51.586;-1.758;2022-07-23T15:18:16;28.90;43.80
52245;DHT22;55759;51.586;-1.758;2022-07-23T15:20:42;28.30;45.20
52245;DHT22;55759;51.586;-1.758;2022-07-23T15:23:08;27.90;46.00
52245;DHT22;55759;51.586;-1.758;2022-07-23T15:25:34;27.50;47.30
52245;DHT22;55759;51.586;-1.758;2022-07-23T15:28:00;27.20;47.60
52245;DHT22;55759;51.586;-1.758;2022-07-23T15:30:26;26.80;48.50
52245;DHT22;55759;51.586;-1.758;2022-07-23T15:32:51;26.30;49.60
52245;DHT22;55759;51.586;-1.758;2022-07-23T15:35:17;26.00;51.00
52245;DHT22;55759;51.586;-1.758;2022-07-23T15:37:49;25.80;51.00
52245;DHT22;55759;51.586;-1.758;2022-07-23T15:40:15;25.60;51.90
52245;DHT22;55759;51.586;-1.758;2022-07-23T15:42:41;25.50;52.80
52245;DHT22;55759;51.586;-1.758;2022-07-23T15:45:07;25.30;53.50
52245;DHT22;55759;51.586;-1.758;2022-07-23T15:47:33;25.50;52.60
52245;DHT22;55759;51.586;-1.758;2022-07-23T15:49:59;25.60;52.00
52245;DHT22;55759;51.586;-1.758;2022-07-23T15:52:24;25.60;51.70
52245;DHT22;55759;51.586;-1.758;2022-07-23T15:54:50;25.30;52.10
52245;DHT22;55759;51.586;-1.758;2022-07-23T15:57:15;25.00;53.20